Toyofujimaru No.2 — 7JDI — position and weather

sailwx.info

Track history (hours):
 
Tides and Currents Weather Stations Pressure Air Temp Water Temp Dewpoint Dewpoint Depression Visibility Wind Speed Wind Dir Waves Ship Positions

Toyofujimaru No.2

Last reported at 2014-Jul-30 17:22 UTC. Time now 2014-Aug-02 06:29 UTC.
Position N 01°15' E 104°08'.

Length 165 m; draft 6.5 m.

Type: Cargo ship. MMSI: 432667000.

Date/timePositionNaut miles runAvg speedWind from/ knotsBaromVisibWave heightAir tempDewpointWater temp
2014-Jul-30 17:22N 01°15' E 104°08'1518.7
2014-Jul-30 16:33N 01°12' E 103°53'9 9.4
2014-Jul-30 15:33N 01°16' E 103°45'1 1.0
2014-Jul-30 14:33N 01°17' E 103°45'0 0.0
2014-Jul-30 13:32N 01°17' E 103°45'0 0.0
2014-Jul-30 12:23N 01°17' E 103°45'0 0.0
2014-Jul-30 11:32N 01°17' E 103°45'0 0.0
2014-Jul-30 10:32N 01°17' E 103°45'0 0.0
2014-Jul-30 09:26N 01°17' E 103°45'0 0.0
2014-Jul-30 08:32N 01°17' E 103°45'0 0.0
2014-Jul-30 07:32N 01°17' E 103°45'0 0.0
2014-Jul-30 06:14N 01°17' E 103°45'0 0.0
2014-Jul-30 05:26N 01°17' E 103°45'1 0.9
2014-Jul-30 04:32N 01°17' E 103°45'6 5.2
2014-Jul-30 03:28N 01°13' E 103°41'10 0.2
2014-Jul-28 08:33N 01°12' E 103°51'1817.8
2014-Jul-28 07:33N 01°16' E 104°08'  
2014-Jul-22 19:31N 22°19' E 114°06'0 0.0
2014-Jul-22 12:33N 22°19' E 114°06'  
Track history (hours):
 
Tides and Currents Weather Stations Pressure Air Temp Water Temp Dewpoint Dewpoint Depression Visibility Wind Speed Wind Dir Waves Ship Positions

Toyofujimaru No.2

Last reported at 2014-Jul-30 17:22 UTC. Time now 2014-Aug-02 06:29 UTC.
Position N 01°15' E 104°08'.

Length 165 m; draft 6.5 m.

Type: Cargo ship. MMSI: 432667000.

Date/timePositionNaut miles runAvg speedWind from/ knotsBaromVisibWave heightAir tempDewpointWater temp
2014-Jul-30 17:22N 01°15' E 104°08'1518.7
2014-Jul-30 16:33N 01°12' E 103°53'9 9.4
2014-Jul-30 15:33N 01°16' E 103°45'1 1.0
2014-Jul-30 14:33N 01°17' E 103°45'0 0.0
2014-Jul-30 13:32N 01°17' E 103°45'0 0.0
2014-Jul-30 12:23N 01°17' E 103°45'0 0.0
2014-Jul-30 11:32N 01°17' E 103°45'0 0.0
2014-Jul-30 10:32N 01°17' E 103°45'0 0.0
2014-Jul-30 09:26N 01°17' E 103°45'0 0.0
2014-Jul-30 08:32N 01°17' E 103°45'0 0.0
2014-Jul-30 07:32N 01°17' E 103°45'0 0.0
2014-Jul-30 06:14N 01°17' E 103°45'0 0.0
2014-Jul-30 05:26N 01°17' E 103°45'1 0.9
2014-Jul-30 04:32N 01°17' E 103°45'6 5.2
2014-Jul-30 03:28N 01°13' E 103°41'10 0.2
2014-Jul-28 08:33N 01°12' E 103°51'1817.8
2014-Jul-28 07:33N 01°16' E 104°08'  
2014-Jul-22 19:31N 22°19' E 114°06'0 0.0
2014-Jul-22 12:33N 22°19' E 114°06'  

Dump ship's entire track history